createdAt,value
2022-08-17T04:01:10.496Z,22.09
2022-08-17T04:04:13.832Z,22.09
2022-08-17T04:07:16.329Z,21.56
2022-08-17T04:10:18.680Z,21.57
2022-08-17T04:13:25.461Z,21.61
2022-08-17T04:16:28.982Z,21.58
2022-08-17T04:19:31.153Z,21.61
2022-08-17T04:22:34.361Z,21.72
2022-08-17T04:25:39.671Z,21.93
2022-08-17T04:28:43.418Z,21.85
2022-08-17T04:31:45.542Z,21.79
2022-08-17T04:34:47.846Z,21.81
2022-08-17T04:37:50.929Z,21.82
2022-08-17T04:41:12.678Z,21.78
2022-08-17T04:44:14.803Z,21.81
2022-08-17T04:47:37.627Z,21.96
2022-08-17T04:50:43.697Z,21.95
2022-08-17T04:53:54.461Z,22.01
2022-08-17T04:56:57.138Z,22.01
2022-08-17T04:59:59.467Z,22.08
2022-08-17T05:03:01.893Z,22.25
2022-08-17T05:06:04.514Z,22.35
2022-08-17T05:09:06.717Z,22.34
2022-08-17T05:12:09.856Z,22.44
2022-08-17T05:15:16.010Z,22.62
2022-08-17T05:18:18.721Z,22.71
2022-08-17T05:21:23.117Z,22.81
2022-08-17T05:24:42.756Z,22.93
2022-08-17T05:27:45.937Z,22.96
2022-08-17T05:30:49.542Z,23.05
2022-08-17T05:33:52.433Z,23.23
2022-08-17T05:36:54.756Z,23.41
2022-08-17T05:39:56.898Z,23.58
2022-08-17T05:43:16.122Z,23.74
2022-08-17T05:46:30.591Z,23.87
2022-08-17T05:49:33.346Z,23.97
2022-08-17T05:53:00.618Z,24.00
2022-08-17T05:56:29.475Z,24.15
2022-08-17T05:59:58.279Z,24.20
2022-08-17T06:03:11.241Z,24.30
2022-08-17T06:06:32.009Z,24.49
2022-08-17T06:09:37.014Z,24.57
2022-08-17T06:13:00.210Z,24.68
2022-08-17T06:16:32.880Z,24.77
2022-08-17T06:19:44.043Z,24.87
2022-08-17T06:22:50.772Z,25.03
2022-08-17T06:25:58.645Z,25.12
2022-08-17T06:29:24.514Z,25.17
2022-08-17T06:32:26.865Z,25.40
2022-08-17T06:35:37.809Z,25.50
2022-08-17T06:38:49.960Z,25.65
2022-08-17T06:43:02.570Z,25.76
2022-08-17T06:45:49.273Z,25.85
2022-08-17T06:48:57.515Z,25.96
2022-08-17T06:52:42.303Z,25.99
2022-08-17T06:56:01.271Z,26.15
2022-08-17T06:59:07.459Z,26.19
2022-08-17T07:02:17.957Z,26.24
2022-08-17T07:05:26.826Z,26.31
2022-08-17T07:08:55.067Z,26.39
2022-08-17T07:12:22.078Z,26.47
2022-08-17T07:15:32.742Z,26.54
2022-08-17T07:18:35.134Z,26.64
2022-08-17T07:21:49.631Z,26.70
2022-08-17T07:25:00.755Z,26.76
2022-08-17T07:28:07.327Z,26.81
2022-08-17T07:31:13.272Z,26.88
2022-08-17T07:34:15.450Z,26.93
2022-08-17T07:37:19.395Z,27.02
2022-08-17T07:40:27.094Z,27.08
2022-08-17T07:43:37.899Z,27.24
2022-08-17T07:47:10.874Z,27.20
2022-08-17T07:50:28.834Z,27.20
2022-08-17T07:53:31.894Z,27.26
2022-08-17T07:56:54.335Z,27.33
2022-08-17T08:00:03.108Z,27.33
2022-08-17T08:03:18.416Z,27.41
2022-08-17T08:06:24.808Z,27.46
2022-08-17T08:09:39.120Z,27.53
2022-08-17T08:12:42.971Z,27.53
2022-08-17T08:15:53.704Z,27.55
2022-08-17T08:19:00.582Z,27.59
2022-08-17T08:22:11.161Z,27.70
2022-08-17T08:25:16.635Z,27.77
2022-08-17T08:28:27.348Z,27.84
2022-08-17T08:32:07.593Z,27.96
2022-08-17T08:35:32.982Z,27.94
2022-08-17T08:38:56.581Z,28.07
2022-08-17T08:42:18.182Z,28.04
2022-08-17T08:45:32.786Z,28.09
2022-08-17T08:49:06.532Z,28.27
2022-08-17T08:52:33.998Z,28.24
2022-08-17T08:56:11.546Z,28.25
2022-08-17T08:59:32.882Z,28.39
2022-08-17T09:02:51.487Z,28.42
2022-08-17T09:06:37.439Z,28.61
2022-08-17T09:09:48.285Z,28.60
2022-08-17T09:13:22.059Z,28.70
2022-08-17T09:16:33.157Z,28.72
2022-08-17T09:19:42.561Z,28.82
2022-08-17T09:22:52.658Z,29.01
2022-08-17T09:26:00.622Z,29.02
2022-08-17T09:29:09.927Z,29.05
2022-08-17T09:32:19.406Z,29.00
2022-08-17T09:35:25.133Z,29.13
2022-08-17T09:39:06.079Z,29.19
2022-08-17T09:42:26.119Z,29.15
2022-08-17T09:45:37.661Z,29.19
2022-08-17T09:49:03.288Z,29.23
2022-08-17T09:52:20.339Z,29.30
2022-08-17T09:55:32.427Z,29.33
2022-08-17T09:59:08.545Z,29.35
2022-08-17T10:02:32.631Z,29.41
2022-08-17T10:05:41.302Z,29.54
2022-08-17T10:09:04.491Z,29.53
2022-08-17T10:12:46.997Z,29.45
2022-08-17T10:15:54.673Z,29.44
2022-08-17T10:19:06.313Z,29.57
2022-08-17T10:22:44.470Z,29.57
2022-08-17T10:26:13.123Z,29.73
2022-08-17T10:29:28.962Z,29.75
2022-08-17T10:32:46.834Z,29.84
2022-08-17T10:36:01.187Z,30.11
2022-08-17T10:39:27.728Z,30.25
2022-08-17T10:42:43.658Z,30.49
2022-08-17T10:45:45.895Z,30.57
2022-08-17T10:49:14.950Z,30.43
2022-08-17T10:52:20.270Z,30.40
2022-08-17T10:55:27.729Z,30.49
2022-08-17T10:58:38.581Z,30.52
2022-08-17T11:01:43.325Z,30.55
2022-08-17T11:04:51.451Z,30.69
2022-08-17T11:08:18.138Z,30.81
2022-08-17T11:11:43.359Z,30.95
2022-08-17T11:14:54.189Z,31.16
2022-08-17T11:18:15.461Z,31.23
2022-08-17T11:21:47.515Z,31.12
2022-08-17T11:24:52.914Z,31.14
2022-08-17T11:28:05.149Z,31.32
2022-08-17T11:31:38.645Z,31.23
2022-08-17T11:34:44.487Z,31.02
2022-08-17T11:37:55.266Z,30.89
2022-08-17T11:41:17.591Z,30.96
2022-08-17T11:44:45.312Z,30.91
2022-08-17T11:48:28.768Z,30.92
2022-08-17T11:52:00.312Z,30.99
2022-08-17T11:55:33.528Z,31.05
2022-08-17T11:58:29.332Z,30.99
2022-08-17T12:01:31.457Z,30.83
2022-08-17T12:04:35.614Z,30.71
2022-08-17T12:08:06.794Z,30.84
2022-08-17T12:11:56.359Z,30.73
2022-08-17T12:15:12.658Z,30.88
2022-08-17T12:18:32.328Z,30.99
2022-08-17T12:21:45.112Z,31.05
2022-08-17T12:25:02.773Z,30.91
2022-08-17T12:28:19.944Z,30.98
2022-08-17T12:31:29.490Z,31.24
2022-08-17T12:34:39.779Z,31.25
2022-08-17T12:37:47.707Z,31.29
2022-08-17T12:40:58.115Z,31.37
2022-08-17T12:44:02.668Z,31.37
2022-08-17T12:47:19.442Z,31.46
2022-08-17T12:50:28.881Z,31.55
2022-08-17T12:53:35.724Z,31.64
2022-08-17T12:56:38.279Z,31.53
2022-08-17T12:59:50.353Z,31.62
2022-08-17T13:03:02.441Z,31.51
2022-08-17T13:06:07.946Z,31.46
2022-08-17T13:09:40.354Z,31.50
2022-08-17T13:12:43.002Z,31.53
2022-08-17T13:15:54.841Z,31.62
2022-08-17T13:19:09.571Z,31.73
2022-08-17T13:22:12.801Z,31.65
2022-08-17T13:25:16.671Z,31.65
2022-08-17T13:28:35.793Z,31.72
2022-08-17T13:31:52.167Z,31.89
2022-08-17T13:35:15.463Z,31.92
2022-08-17T13:38:45.479Z,31.96
2022-08-17T13:41:49.743Z,31.85
2022-08-17T13:44:51.797Z,31.82
2022-08-17T13:48:13.537Z,31.97
2022-08-17T13:51:25.897Z,32.02
2022-08-17T13:54:33.187Z,32.07
2022-08-17T13:57:36.275Z,32.08
2022-08-17T14:00:39.419Z,31.95
2022-08-17T14:03:41.747Z,32.07
2022-08-17T14:07:23.158Z,32.10
2022-08-17T14:10:26.066Z,32.17
2022-08-17T14:13:28.595Z,32.20
2022-08-17T14:16:30.930Z,32.08
2022-08-17T14:19:33.059Z,31.98
2022-08-17T14:22:38.184Z,31.97
2022-08-17T14:25:40.510Z,31.95
2022-08-17T14:28:54.694Z,32.03
2022-08-17T14:32:04.237Z,32.05
2022-08-17T14:35:09.024Z,32.07
2022-08-17T14:38:11.082Z,32.37
2022-08-17T14:41:21.470Z,32.32
2022-08-17T14:44:24.513Z,32.32
2022-08-17T14:47:26.931Z,32.25
2022-08-17T14:50:29.004Z,32.17
